createdAt,value
2018-04-24T00:00:59.513Z,89.78
2018-04-24T00:01:59.509Z,90.26
2018-04-24T00:02:59.507Z,89.78
2018-04-24T00:03:59.503Z,89.78
2018-04-24T00:04:59.502Z,90.26
2018-04-24T00:05:59.499Z,89.97
2018-04-24T00:06:59.495Z,89.69
2018-04-24T00:07:59.489Z,89.21
2018-04-24T00:08:59.483Z,88.92
2018-04-24T00:09:59.479Z,88.54
2018-04-24T00:10:59.477Z,88.64
2018-04-24T00:11:59.473Z,88.07
2018-04-24T00:12:59.468Z,87.30
2018-04-24T00:13:59.465Z,87.49
2018-04-24T00:14:59.463Z,87.59
2018-04-24T00:15:59.461Z,86.73
2018-04-24T00:16:59.458Z,86.92
2018-04-24T00:17:59.455Z,86.25
2018-04-24T00:18:59.453Z,85.87
2018-04-24T00:19:59.447Z,85.68
2018-04-24T00:20:59.438Z,85.34
2018-04-24T00:21:59.443Z,85.44
2018-04-24T00:22:59.438Z,84.86
2018-04-24T00:23:59.429Z,85.25
2018-04-24T00:24:59.424Z,84.00
2018-04-24T00:25:59.435Z,84.20
2018-04-24T00:26:59.416Z,83.72
2018-04-24T00:27:59.413Z,83.91
2018-04-24T00:28:59.408Z,83.34
2018-04-24T00:29:59.406Z,83.72
2018-04-24T00:30:59.410Z,83.05
2018-04-24T00:31:59.402Z,83.14
2018-04-24T00:32:59.393Z,82.76
2018-04-24T00:33:59.391Z,82.76
2018-04-24T00:34:59.389Z,82.76
2018-04-24T00:35:59.382Z,82.67
2018-04-24T00:36:59.382Z,82.29
2018-04-24T00:37:59.378Z,82.67
2018-04-24T00:38:59.371Z,82.48
2018-04-24T00:39:59.367Z,82.38
2018-04-24T00:40:59.363Z,82.38
2018-04-24T00:41:59.359Z,82.67
2018-04-24T00:42:59.355Z,82.57
2018-04-24T00:43:59.353Z,82.57
2018-04-24T00:44:59.348Z,82.00
2018-04-24T00:45:59.344Z,82.38
2018-04-24T00:46:59.340Z,82.48
2018-04-24T00:47:59.336Z,82.09
2018-04-24T00:48:59.335Z,81.71
2018-04-24T00:49:59.332Z,81.81
2018-04-24T00:50:59.331Z,81.24
2018-04-24T00:51:59.324Z,81.81
2018-04-24T00:52:59.316Z,81.52
2018-04-24T00:53:59.312Z,81.62
2018-04-24T00:54:59.308Z,81.24
2018-04-24T00:55:59.304Z,81.62
2018-04-24T00:56:59.299Z,81.04
2018-04-24T00:57:59.296Z,81.01
2018-04-24T00:58:59.293Z,80.76
2018-04-24T00:59:59.288Z,80.76
2018-04-24T01:00:59.283Z,80.72
2018-04-24T01:01:59.280Z,80.81
2018-04-24T01:02:59.280Z,81.58
2018-04-24T01:03:59.276Z,81.96
2018-04-24T01:04:59.267Z,81.48
2018-04-24T01:05:59.263Z,81.86
2018-04-24T01:06:59.260Z,82.06
2018-04-24T01:07:59.256Z,82.34
2018-04-24T01:08:59.255Z,82.24
2018-04-24T01:09:59.251Z,81.96
2018-04-24T01:10:59.245Z,82.34
2018-04-24T01:11:59.241Z,82.82
2018-04-24T01:12:59.241Z,82.72
2018-04-24T01:13:59.232Z,82.72
2018-04-24T01:14:59.230Z,82.91
2018-04-24T01:15:59.224Z,82.72
2018-04-24T01:16:59.248Z,82.34
2018-04-24T01:17:59.216Z,82.43
2018-04-24T01:18:59.211Z,82.91
2018-04-24T01:19:59.208Z,82.34
2018-04-24T01:20:59.207Z,81.86
2018-04-24T01:21:59.203Z,81.96
2018-04-24T01:22:59.199Z,82.34
2018-04-24T01:23:59.197Z,82.34
2018-04-24T01:24:59.186Z,81.96
2018-04-24T01:25:59.186Z,82.53
2018-04-24T01:26:59.180Z,82.34
2018-04-24T01:27:59.175Z,82.24
2018-04-24T01:28:59.172Z,82.43
2018-04-24T01:29:59.167Z,82.63
2018-04-24T01:30:59.165Z,83.20
2018-04-24T01:31:59.158Z,82.91
2018-04-24T01:32:59.153Z,82.59
2018-04-24T01:33:59.150Z,83.44
2018-04-24T01:34:59.149Z,82.68
2018-04-24T01:35:59.145Z,82.78
2018-04-24T01:36:59.136Z,83.48
2018-04-24T01:37:59.132Z,82.72
2018-04-24T01:38:59.128Z,82.68
2018-04-24T01:39:59.125Z,82.72
2018-04-24T01:40:59.123Z,82.68
2018-04-24T01:41:59.120Z,82.30
2018-04-24T01:42:59.112Z,82.78
2018-04-24T01:43:59.107Z,82.72
2018-04-24T01:44:59.105Z,82.72
2018-04-24T01:45:59.098Z,82.40
2018-04-24T01:46:59.095Z,81.92
2018-04-24T01:47:59.092Z,82.97
2018-04-24T01:48:59.084Z,82.78
2018-04-24T01:49:59.081Z,82.20
2018-04-24T01:50:59.080Z,82.30
2018-04-24T01:51:59.072Z,82.40
2018-04-24T01:52:59.071Z,82.78
2018-04-24T01:53:59.067Z,82.78
2018-04-24T01:54:59.066Z,82.68
2018-04-24T01:55:59.061Z,82.78
2018-04-24T01:56:59.049Z,83.44
2018-04-24T01:57:59.045Z,83.06
2018-04-24T01:58:59.042Z,82.87
2018-04-24T01:59:59.040Z,82.78
2018-04-24T02:00:59.032Z,83.25
2018-04-24T02:01:59.030Z,83.25
2018-04-24T02:02:59.025Z,83.25
2018-04-24T02:03:59.024Z,82.59
2018-04-24T02:04:59.015Z,82.78
2018-04-24T02:05:59.011Z,83.16
2018-04-24T02:06:59.010Z,82.87
2018-04-24T02:07:59.005Z,83.64
2018-04-24T02:08:58.996Z,83.16
2018-04-24T02:09:58.994Z,84.01
2018-04-24T02:10:58.988Z,82.87
2018-04-24T02:11:58.983Z,83.64
2018-04-24T02:12:58.978Z,83.54
2018-04-24T02:13:58.975Z,84.01
2018-04-24T02:14:58.973Z,84.20
2018-04-24T02:15:58.969Z,83.73
2018-04-24T02:16:58.960Z,83.64
2018-04-24T02:17:58.954Z,84.01
2018-04-24T02:18:58.955Z,83.83
2018-04-24T02:19:58.950Z,83.92
2018-04-24T02:20:58.941Z,84.20
2018-04-24T02:21:58.937Z,83.73
2018-04-24T02:22:58.932Z,84.01
2018-04-24T02:23:58.929Z,83.64
2018-04-24T02:24:58.925Z,83.73
2018-04-24T02:25:58.918Z,83.83
2018-04-24T02:26:58.916Z,83.92
2018-04-24T02:27:58.910Z,83.64
2018-04-24T02:28:58.905Z,84.11
2018-04-24T02:29:58.901Z,83.54
2018-04-24T02:30:58.896Z,83.54
2018-04-24T02:31:58.893Z,84.11
2018-04-24T02:32:58.894Z,84.30
2018-04-24T02:33:58.887Z,84.30
2018-04-24T02:34:58.878Z,84.01
2018-04-24T02:35:58.874Z,84.01
2018-04-24T02:36:58.872Z,83.88
2018-04-24T02:37:58.868Z,83.78
2018-04-24T02:38:58.860Z,83.97
2018-04-24T02:39:58.867Z,84.16
2018-04-24T02:40:58.849Z,83.88
2018-04-24T02:41:58.855Z,84.16
2018-04-24T02:42:58.844Z,84.36
2018-04-24T02:43:58.836Z,84.55
2018-04-24T02:44:58.831Z,85.02
2018-04-24T02:45:58.826Z,84.74
2018-04-24T02:46:58.826Z,84.74
2018-04-24T02:47:58.820Z,85.12
2018-04-24T02:48:58.813Z,84.45
2018-04-24T02:49:58.807Z,85.02
2018-04-24T02:50:58.805Z,85.21
2018-04-24T02:51:58.801Z,84.92
2018-04-24T02:52:58.792Z,85.21
2018-04-24T02:53:58.789Z,85.41
2018-04-24T02:54:58.783Z,85.12
2018-04-24T02:55:58.778Z,85.02
2018-04-24T02:56:58.773Z,85.12
2018-04-24T02:57:58.772Z,85.31
2018-04-24T02:58:58.763Z,85.21
2018-04-24T02:59:58.759Z,85.50
2018-04-24T03:00:58.753Z,85.50
2018-04-24T03:01:58.753Z,84.74
2018-04-24T03:02:58.744Z,84.74
2018-04-24T03:03:58.747Z,85.12
2018-04-24T03:04:58.737Z,85.50
2018-04-24T03:05:58.735Z,86.07
2018-04-24T03:06:58.724Z,85.78
2018-04-24T03:07:58.721Z,85.78
2018-04-24T03:08:58.717Z,85.78
2018-04-24T03:09:58.716Z,85.78
2018-04-24T03:10:58.710Z,85.88
2018-04-24T03:11:58.701Z,85.88
2018-04-24T03:12:58.695Z,85.60
2018-04-24T03:13:58.689Z,85.60
2018-04-24T03:14:58.684Z,85.60
2018-04-24T03:15:58.681Z,85.78
2018-04-24T03:16:58.678Z,85.31
2018-04-24T03:17:58.673Z,85.41
2018-04-24T03:18:58.665Z,85.88
2018-04-24T03:19:58.661Z,85.69
2018-04-24T03:20:58.656Z,85.78
2018-04-24T03:21:58.650Z,85.60
2018-04-24T03:22:58.645Z,85.60
2018-04-24T03:23:58.640Z,85.69
2018-04-24T03:24:58.635Z,85.78
2018-04-24T03:25:58.630Z,86.16
2018-04-24T03:26:58.626Z,85.78
2018-04-24T03:27:58.620Z,85.69
2018-04-24T03:28:58.620Z,86.16
2018-04-24T03:29:58.616Z,85.69
2018-04-24T03:30:58.610Z,86.16
2018-04-24T03:31:58.605Z,86.16
2018-04-24T03:32:58.595Z,85.88
2018-04-24T03:33:58.590Z,86.26
2018-04-24T03:34:58.586Z,86.36
2018-04-24T03:35:58.582Z,86.26
2018-04-24T03:36:58.577Z,86.45
2018-04-24T03:37:58.572Z,86.65
2018-04-24T03:38:58.571Z,86.26
2018-04-24T03:39:58.562Z,86.55
2018-04-24T03:40:58.557Z,86.74
2018-04-24T03:41:58.552Z,86.26
2018-04-24T03:42:58.550Z,86.74
2018-04-24T03:43:58.545Z,86.93
2018-04-24T03:44:58.536Z,86.65
2018-04-24T03:45:58.531Z,86.45
2018-04-24T03:46:58.525Z,86.45
2018-04-24T03:47:58.520Z,86.83
2018-04-24T03:48:58.519Z,86.45
2018-04-24T03:49:58.515Z,86.26
2018-04-24T03:50:58.511Z,86.45
2018-04-24T03:51:58.503Z,85.88
2018-04-24T03:52:58.495Z,85.50
2018-04-24T03:53:58.491Z,85.97
2018-04-24T03:54:58.485Z,86.07
2018-04-24T03:55:58.481Z,86.36
2018-04-24T03:56:58.480Z,86.74
2018-04-24T03:57:58.470Z,86.83
2018-04-24T03:58:58.469Z,86.83
2018-04-24T03:59:58.464Z,86.74
2018-04-24T04:00:58.459Z,86.55
2018-04-24T04:01:58.456Z,86.74
2018-04-24T04:02:58.449Z,86.65
2018-04-24T04:03:58.452Z,86.55
2018-04-24T04:04:58.435Z,86.74
2018-04-24T04:05:58.432Z,86.65
2018-04-24T04:06:58.426Z,86.55
2018-04-24T04:07:58.422Z,86.93
2018-04-24T04:08:58.415Z,86.55
2018-04-24T04:09:58.411Z,86.74
2018-04-24T04:10:58.406Z,87.21
2018-04-24T04:11:58.401Z,86.74
2018-04-24T04:12:58.396Z,86.45
2018-04-24T04:13:58.398Z,86.26
2018-04-24T04:14:58.389Z,86.16
2018-04-24T04:15:58.464Z,86.26
2018-04-24T04:16:58.375Z,86.45
2018-04-24T04:17:58.370Z,86.45
2018-04-24T04:18:58.365Z,86.36
2018-04-24T04:19:58.360Z,86.55
2018-04-24T04:20:58.355Z,86.55
2018-04-24T04:21:58.350Z,86.45
2018-04-24T04:22:58.349Z,86.36
2018-04-24T04:23:58.344Z,86.45
2018-04-24T04:24:58.334Z,86.65
2018-04-24T04:25:58.329Z,86.45
2018-04-24T04:26:58.332Z,86.55
2018-04-24T04:27:58.327Z,86.36
2018-04-24T04:28:58.315Z,86.65
2018-04-24T04:29:58.309Z,86.65
2018-04-24T04:30:58.306Z,86.45
2018-04-24T04:31:58.300Z,86.93
2018-04-24T04:32:58.325Z,87.12
2018-04-24T04:33:58.341Z,87.02
2018-04-24T04:34:58.284Z,87.02
2018-04-24T04:35:58.347Z,86.55
2018-04-24T04:36:58.274Z,86.65
2018-04-24T04:37:58.269Z,86.45
2018-04-24T04:38:58.264Z,86.65
2018-04-24T04:39:58.260Z,87.21
2018-04-24T04:40:58.258Z,86.83
2018-04-24T04:41:58.254Z,86.26
2018-04-24T04:42:58.249Z,86.07
2018-04-24T04:43:58.244Z,86.26
2018-04-24T04:44:58.239Z,86.59
2018-04-24T04:45:58.234Z,86.16
2018-04-24T04:46:58.225Z,86.26
2018-04-24T04:47:58.221Z,86.49
2018-04-24T04:48:58.216Z,86.69
2018-04-24T04:49:58.211Z,86.49
2018-04-24T04:50:58.209Z,86.98
2018-04-24T04:51:58.202Z,86.69
2018-04-24T04:52:58.197Z,86.30
2018-04-24T04:53:58.193Z,86.21
2018-04-24T04:54:58.195Z,85.54
2018-04-24T04:55:58.187Z,85.83
2018-04-24T04:56:58.177Z,86.02
2018-04-24T04:57:58.177Z,85.93
2018-04-24T04:58:58.173Z,85.54
2018-04-24T04:59:58.169Z,85.35
2018-04-24T05:00:58.159Z,85.54
2018-04-24T05:01:58.155Z,85.45
2018-04-24T05:02:58.151Z,85.64
2018-04-24T05:03:58.146Z,85.54
2018-04-24T05:04:58.140Z,84.97
2018-04-24T05:05:58.136Z,85.35
2018-04-24T05:06:58.137Z,85.45
2018-04-24T05:07:58.128Z,85.45
2018-04-24T05:08:58.122Z,85.45
2018-04-24T05:09:58.117Z,84.97
2018-04-24T05:10:58.114Z,85.16
2018-04-24T05:11:58.135Z,84.97
2018-04-24T05:12:58.109Z,84.88
2018-04-24T05:13:58.106Z,84.78
2018-04-24T05:14:58.096Z,84.78
2018-04-24T05:15:58.093Z,85.16
2018-04-24T05:16:58.091Z,85.06
2018-04-24T05:17:58.092Z,84.88
2018-04-24T05:18:58.078Z,84.49
2018-04-24T05:19:58.076Z,84.78
2018-04-24T05:20:58.069Z,84.78
2018-04-24T05:21:58.066Z,85.06
2018-04-24T05:22:58.061Z,84.40
2018-04-24T05:23:58.061Z,85.16
2018-04-24T05:24:58.056Z,84.88
2018-04-24T05:25:58.052Z,84.78
2018-04-24T05:26:58.044Z,84.69
2018-04-24T05:27:58.040Z,85.16
2018-04-24T05:28:58.035Z,84.53
2018-04-24T05:29:58.032Z,84.53
2018-04-24T05:30:58.029Z,84.06
2018-04-24T05:31:58.024Z,84.11
2018-04-24T05:32:58.018Z,84.16
2018-04-24T05:33:58.091Z,84.16
2018-04-24T05:34:58.011Z,84.06
2018-04-24T05:35:58.012Z,83.67
2018-04-24T05:36:58.009Z,83.92
2018-04-24T05:37:58.002Z,83.35
2018-04-24T05:38:57.998Z,83.39
2018-04-24T05:39:57.994Z,83.39
2018-04-24T05:40:57.987Z,83.39
2018-04-24T05:41:57.982Z,82.91
2018-04-24T05:42:57.978Z,82.72
2018-04-24T05:43:57.975Z,82.82
2018-04-24T05:44:57.974Z,82.72
2018-04-24T05:45:57.969Z,82.82
2018-04-24T05:46:57.963Z,83.01
2018-04-24T05:47:57.958Z,83.11
2018-04-24T05:48:57.953Z,83.48
2018-04-24T05:49:57.950Z,82.82
2018-04-24T05:50:57.950Z,82.72
2018-04-24T05:51:57.946Z,83.39
2018-04-24T05:52:58.003Z,83.29
2018-04-24T05:53:57.934Z,82.91
2018-04-24T05:54:57.930Z,83.11
2018-04-24T05:55:57.927Z,82.72
2018-04-24T05:56:57.927Z,83.01
2018-04-24T05:57:57.922Z,82.72
2018-04-24T05:58:57.915Z,83.20
2018-04-24T05:59:57.912Z,83.29
2018-04-24T06:00:57.906Z,82.91
2018-04-24T06:01:57.903Z,82.82
2018-04-24T06:02:57.911Z,83.20
2018-04-24T06:03:57.897Z,83.29
2018-04-24T06:04:57.891Z,83.29
2018-04-24T06:05:57.889Z,83.20
2018-04-24T06:06:57.885Z,82.72
2018-04-24T06:07:57.882Z,82.72
2018-04-24T06:08:57.881Z,83.20
2018-04-24T06:09:57.878Z,82.72
2018-04-24T06:10:57.875Z,82.91
2018-04-24T06:11:57.871Z,83.05
2018-04-24T06:12:57.863Z,82.95
2018-04-24T06:13:57.860Z,81.90
2018-04-24T06:14:57.946Z,81.81
2018-04-24T06:15:57.853Z,81.90
2018-04-24T06:16:57.848Z,81.62
2018-04-24T06:17:57.848Z,81.81
2018-04-24T06:18:57.842Z,81.62
2018-04-24T06:19:57.845Z,81.90
2018-04-24T06:20:57.841Z,82.09
2018-04-24T06:21:57.832Z,82.38
2018-04-24T06:22:57.837Z,81.43
2018-04-24T06:23:57.831Z,81.95
2018-04-24T06:24:57.824Z,80.90
2018-04-24T06:25:57.820Z,80.90
2018-04-24T06:26:57.817Z,80.13
2018-04-24T06:27:57.817Z,80.51
2018-04-24T06:28:57.810Z,79.94
2018-04-24T06:29:57.808Z,79.75
2018-04-24T06:30:57.809Z,79.85
2018-04-24T06:31:57.808Z,79.85
2018-04-24T06:32:57.801Z,79.27
2018-04-24T06:33:57.796Z,79.27
2018-04-24T06:34:57.798Z,79.65
2018-04-24T06:35:57.880Z,79.75
2018-04-24T06:36:57.787Z,80.13
2018-04-24T06:37:57.786Z,79.46
2018-04-24T06:38:57.783Z,79.41
2018-04-24T06:39:57.780Z,79.60
2018-04-24T06:40:57.777Z,79.22
2018-04-24T06:41:57.775Z,79.02
2018-04-24T06:42:57.772Z,78.36
2018-04-24T06:43:57.770Z,78.36
2018-04-24T06:44:57.767Z,78.55
2018-04-24T06:45:57.764Z,78.64
2018-04-24T06:46:57.763Z,78.36
2018-04-24T06:47:57.766Z,78.36
2018-04-24T06:48:57.762Z,78.45
2018-04-24T06:49:57.758Z,78.26
2018-04-24T06:50:57.756Z,78.26
2018-04-24T06:51:57.751Z,77.84
2018-04-24T06:52:57.752Z,78.13
2018-04-24T06:53:57.750Z,78.31
2018-04-24T06:54:57.813Z,78.99
2018-04-24T06:55:57.743Z,78.89
2018-04-24T06:56:57.739Z,78.89
2018-04-24T06:57:57.742Z,79.36
2018-04-24T06:58:57.736Z,79.27
2018-04-24T06:59:57.734Z,79.08
2018-04-24T07:00:57.732Z,79.41
2018-04-24T07:01:57.729Z,79.08
2018-04-24T07:02:57.731Z,78.99
2018-04-24T07:03:57.730Z,79.27
2018-04-24T07:04:57.722Z,79.08
2018-04-24T07:05:57.721Z,78.70
2018-04-24T07:06:57.722Z,78.89
2018-04-24T07:07:57.721Z,78.79
2018-04-24T07:08:57.716Z,78.83
2018-04-24T07:09:57.713Z,79.08
2018-04-24T07:10:57.710Z,79.31
2018-04-24T07:11:57.711Z,78.83
2018-04-24T07:12:57.706Z,78.74
2018-04-24T07:13:57.713Z,78.55
2018-04-24T07:14:57.702Z,78.74
2018-04-24T07:15:57.699Z,78.36
2018-04-24T07:16:57.735Z,78.30
2018-04-24T07:17:57.694Z,78.30
2018-04-24T07:18:57.692Z,78.07
2018-04-24T07:19:57.690Z,77.69
2018-04-24T07:20:57.691Z,78.16
2018-04-24T07:21:57.690Z,78.20
2018-04-24T07:22:57.684Z,77.87
2018-04-24T07:23:57.682Z,78.55
2018-04-24T07:24:57.683Z,78.74
2018-04-24T07:25:57.681Z,79.12
2018-04-24T07:26:57.675Z,79.02
2018-04-24T07:27:57.675Z,78.55
2018-04-24T07:28:57.672Z,78.55
2018-04-24T07:29:57.668Z,78.55
2018-04-24T07:30:57.667Z,78.36
2018-04-24T07:31:57.665Z,78.74
2018-04-24T07:32:57.746Z,79.12
2018-04-24T07:33:57.664Z,79.02
2018-04-24T07:34:57.659Z,78.64
2018-04-24T07:35:57.656Z,78.74
2018-04-24T07:36:57.654Z,78.64
2018-04-24T07:37:57.651Z,78.83
2018-04-24T07:38:57.651Z,78.93
2018-04-24T07:39:57.647Z,79.02
2018-04-24T07:40:57.700Z,78.74
2018-04-24T07:41:57.644Z,78.64
2018-04-24T07:42:57.641Z,78.83
2018-04-24T07:43:57.639Z,78.64
2018-04-24T07:44:57.638Z,78.55
2018-04-24T07:45:57.637Z,78.70
2018-04-24T07:46:57.635Z,78.89
2018-04-24T07:47:57.632Z,79.17
2018-04-24T07:48:57.625Z,79.27
2018-04-24T07:49:57.623Z,79.17
2018-04-24T07:50:57.621Z,78.83
2018-04-24T07:51:57.619Z,78.93
2018-04-24T07:52:57.617Z,79.08
2018-04-24T07:53:57.612Z,79.12
2018-04-24T07:54:57.613Z,79.98
2018-04-24T07:55:57.610Z,79.88
2018-04-24T07:56:57.609Z,79.50
2018-04-24T07:57:57.604Z,79.69
2018-04-24T07:58:57.605Z,79.79
2018-04-24T07:59:57.602Z,79.41
2018-04-24T08:00:57.597Z,79.41
2018-04-24T08:01:57.593Z,79.50
2018-04-24T08:02:57.596Z,79.31
2018-04-24T08:03:57.589Z,79.31
2018-04-24T08:04:57.590Z,79.98
2018-04-24T08:05:57.587Z,80.36
2018-04-24T08:06:57.582Z,80.27
2018-04-24T08:07:57.585Z,80.93
2018-04-24T08:08:57.577Z,80.46
2018-04-24T08:09:57.575Z,82.37
2018-04-24T08:10:57.573Z,82.37
2018-04-24T08:11:57.573Z,82.08
2018-04-24T08:12:57.568Z,82.56
2018-04-24T08:13:57.564Z,82.94
2018-04-24T08:14:57.563Z,83.33
2018-04-24T08:15:57.560Z,83.33
2018-04-24T08:16:57.561Z,83.33
2018-04-24T08:17:57.559Z,84.09
2018-04-24T08:18:57.558Z,85.71
2018-04-24T08:19:57.555Z,86.00
2018-04-24T08:20:57.548Z,86.76
2018-04-24T08:21:57.546Z,86.47
2018-04-24T08:22:57.578Z,87.43
2018-04-24T08:23:57.542Z,87.43
2018-04-24T08:24:57.538Z,87.91
2018-04-24T08:25:57.537Z,87.77
2018-04-24T08:26:57.534Z,87.77
2018-04-24T08:27:57.531Z,87.77
2018-04-24T08:28:57.529Z,87.72
2018-04-24T08:29:57.526Z,88.87
2018-04-24T08:30:57.530Z,87.82
2018-04-24T08:31:57.526Z,87.58
2018-04-24T08:32:57.518Z,87.82
2018-04-24T08:33:57.516Z,87.43
2018-04-24T08:34:57.518Z,87.82
2018-04-24T08:35:57.513Z,87.53
2018-04-24T08:36:57.509Z,87.72
2018-04-24T08:37:57.508Z,87.43
2018-04-24T08:38:57.514Z,87.05
2018-04-24T08:39:57.514Z,86.00
2018-04-24T08:40:57.499Z,85.90
2018-04-24T08:41:57.497Z,86.29
2018-04-24T08:42:57.501Z,85.81
2018-04-24T08:43:57.498Z,86.10
2018-04-24T08:44:57.489Z,86.00
2018-04-24T08:45:57.489Z,86.10
2018-04-24T08:46:57.486Z,86.04
2018-04-24T08:47:57.565Z,86.04
2018-04-24T08:48:57.482Z,85.90
2018-04-24T08:49:57.481Z,86.29
2018-04-24T08:50:57.477Z,86.10
2018-04-24T08:51:57.478Z,86.19
2018-04-24T08:52:57.472Z,86.10
2018-04-24T08:53:57.471Z,86.57
2018-04-24T08:54:57.470Z,86.63
2018-04-24T08:55:57.466Z,86.72
2018-04-24T08:56:57.468Z,87.39
2018-04-24T08:57:57.465Z,87.77
2018-04-24T08:58:57.459Z,87.68
2018-04-24T08:59:57.460Z,87.91
2018-04-24T09:00:57.458Z,87.43
2018-04-24T09:01:57.473Z,88.10
2018-04-24T09:02:57.451Z,88.48
2018-04-24T09:03:57.447Z,88.73
2018-04-24T09:04:57.445Z,88.73
2018-04-24T09:05:57.441Z,89.11
2018-04-24T09:06:57.447Z,89.82
2018-04-24T09:07:57.438Z,91.45
2018-04-24T09:08:57.435Z,91.30
2018-04-24T09:09:57.432Z,91.88
2018-04-24T09:10:57.433Z,93.12
2018-04-24T09:11:57.431Z,93.70
2018-04-24T09:12:57.424Z,94.93
2018-04-24T09:13:57.474Z,95.12
2018-04-24T09:14:57.424Z,95.12
2018-04-24T09:15:57.424Z,96.03
2018-04-24T09:16:57.414Z,96.03
2018-04-24T09:17:57.411Z,96.51
2018-04-24T09:18:57.410Z,97.42
2018-04-24T09:19:57.411Z,96.89
2018-04-24T09:20:57.406Z,96.42
2018-04-24T09:21:57.400Z,97.56
2018-04-24T09:22:57.398Z,98.52
2018-04-24T09:23:57.396Z,98.23
2018-04-24T09:24:57.391Z,98.32
2018-04-24T09:25:57.389Z,98.23
2018-04-24T09:26:57.420Z,98.42
2018-04-24T09:27:57.384Z,99.04
2018-04-24T09:28:57.386Z,99.08
2018-04-24T09:29:57.382Z,99.04
2018-04-24T09:30:57.375Z,98.37
2018-04-24T09:31:57.374Z,97.99
2018-04-24T09:32:57.378Z,98.28
2018-04-24T09:33:57.372Z,98.37
2018-04-24T09:34:57.366Z,97.99
2018-04-24T09:35:57.363Z,97.71
2018-04-24T09:36:57.361Z,97.61
2018-04-24T09:37:57.358Z,96.70
2018-04-24T09:38:57.416Z,97.08
2018-04-24T09:39:57.354Z,97.08
2018-04-24T09:40:57.350Z,96.99
2018-04-24T09:41:57.351Z,96.13
2018-04-24T09:42:57.350Z,95.27
2018-04-24T09:43:57.377Z,94.93
2018-04-24T09:44:57.343Z,94.79
2018-04-24T09:45:57.428Z,95.17
2018-04-24T09:46:57.342Z,95.65
2018-04-24T09:47:57.340Z,95.07
2018-04-24T09:48:57.395Z,95.56
2018-04-24T09:49:57.331Z,96.03
2018-04-24T09:50:57.329Z,96.13
2018-04-24T09:51:57.328Z,95.75
2018-04-24T09:52:57.324Z,95.75
2018-04-24T09:53:57.322Z,95.56
2018-04-24T09:54:57.321Z,95.65
2018-04-24T09:55:57.320Z,95.17
2018-04-24T09:56:57.316Z,95.56
2018-04-24T09:57:57.317Z,95.32
2018-04-24T09:58:57.313Z,95.03
2018-04-24T09:59:57.311Z,94.51
2018-04-24T10:00:57.312Z,93.65
2018-04-24T10:01:57.313Z,94.12
2018-04-24T10:02:57.304Z,94.31
2018-04-24T10:03:57.304Z,94.60
2018-04-24T10:04:57.303Z,94.22
2018-04-24T10:05:57.303Z,94.41
2018-04-24T10:06:57.298Z,94.70
2018-04-24T10:07:57.295Z,95.17
2018-04-24T10:08:57.292Z,95.17
2018-04-24T10:09:57.291Z,94.41
2018-04-24T10:10:57.289Z,94.65
2018-04-24T10:11:57.287Z,93.98
2018-04-24T10:12:57.310Z,93.50
2018-04-24T10:13:57.287Z,92.93
2018-04-24T10:14:57.286Z,93.50
2018-04-24T10:15:57.285Z,92.54
2018-04-24T10:16:57.277Z,93.40
2018-04-24T10:17:57.277Z,93.02
2018-04-24T10:18:57.282Z,94.07
2018-04-24T10:19:57.277Z,93.40
2018-04-24T10:20:57.271Z,93.50
2018-04-24T10:21:57.270Z,93.60
2018-04-24T10:22:57.267Z,92.64
2018-04-24T10:23:57.266Z,92.54
2018-04-24T10:24:57.264Z,92.16
2018-04-24T10:25:57.266Z,93.12
2018-04-24T10:26:57.268Z,93.88
2018-04-24T10:27:57.260Z,93.88
2018-04-24T10:28:57.258Z,93.12
2018-04-24T10:29:57.257Z,93.79
2018-04-24T10:30:57.255Z,93.50
2018-04-24T10:31:57.254Z,93.88
2018-04-24T10:32:57.255Z,92.83
2018-04-24T10:33:57.254Z,92.25
2018-04-24T10:34:57.248Z,92.07
2018-04-24T10:35:57.248Z,92.45
2018-04-24T10:36:57.248Z,92.35
2018-04-24T10:37:57.246Z,92.83
2018-04-24T10:38:57.253Z,93.12
2018-04-24T10:39:57.240Z,93.21
2018-04-24T10:40:57.237Z,92.35
2018-04-24T10:41:57.236Z,92.78
2018-04-24T10:42:57.234Z,92.30
2018-04-24T10:43:57.234Z,92.30
2018-04-24T10:44:57.234Z,91.49
2018-04-24T10:45:57.233Z,91.30
2018-04-24T10:46:57.228Z,91.63
2018-04-24T10:47:57.249Z,92.40
2018-04-24T10:48:57.224Z,92.21
2018-04-24T10:49:57.230Z,91.92
2018-04-24T10:50:57.225Z,91.35
2018-04-24T10:51:57.221Z,91.16
2018-04-24T10:52:57.219Z,91.53
2018-04-24T10:53:57.218Z,90.96
2018-04-24T10:54:57.216Z,90.67
2018-04-24T10:55:57.249Z,91.53
2018-04-24T10:56:57.218Z,91.53
2018-04-24T10:57:57.215Z,91.49
2018-04-24T10:58:57.217Z,91.39
2018-04-24T10:59:57.214Z,91.20
2018-04-24T11:00:57.210Z,90.63
2018-04-24T11:01:57.206Z,90.82
2018-04-24T11:02:57.205Z,90.05
2018-04-24T11:03:57.207Z,90.82
2018-04-24T11:04:57.201Z,90.24
2018-04-24T11:05:57.200Z,90.44
2018-04-24T11:06:57.201Z,90.24
2018-04-24T11:07:57.199Z,89.86
2018-04-24T11:08:57.196Z,89.90
2018-04-24T11:09:57.194Z,88.90
2018-04-24T11:10:57.196Z,89.09
2018-04-24T11:11:57.261Z,89.86
2018-04-24T11:12:57.192Z,89.09
2018-04-24T11:13:57.190Z,89.09
2018-04-24T11:14:57.186Z,89.09
2018-04-24T11:15:57.185Z,89.67
2018-04-24T11:16:57.188Z,89.09
2018-04-24T11:17:57.186Z,88.81
2018-04-24T11:18:57.181Z,88.95
2018-04-24T11:19:57.180Z,88.56
2018-04-24T11:20:57.252Z,88.66
2018-04-24T11:21:57.186Z,87.99
2018-04-24T11:22:57.176Z,88.28
2018-04-24T11:23:57.178Z,87.51
2018-04-24T11:24:57.174Z,87.13
2018-04-24T11:25:57.171Z,86.27
2018-04-24T11:26:57.170Z,86.36
2018-04-24T11:27:57.171Z,86.22
2018-04-24T11:28:57.173Z,86.84
2018-04-24T11:29:57.171Z,86.17
2018-04-24T11:30:57.171Z,86.17
2018-04-24T11:31:57.173Z,86.36
2018-04-24T11:32:57.164Z,86.65
2018-04-24T11:33:57.164Z,86.17
2018-04-24T11:34:57.163Z,86.65
2018-04-24T11:35:57.174Z,86.27
2018-04-24T11:36:57.161Z,86.17
2018-04-24T11:37:57.161Z,86.55
2018-04-24T11:38:57.160Z,85.60
2018-04-24T11:39:57.160Z,85.50
2018-04-24T11:40:57.158Z,85.54
2018-04-24T11:41:57.156Z,85.45
2018-04-24T11:42:57.160Z,85.35
2018-04-24T11:43:57.172Z,85.54
2018-04-24T11:44:57.154Z,85.35
2018-04-24T11:45:57.152Z,85.45
2018-04-24T11:46:57.152Z,84.78
2018-04-24T11:47:57.151Z,84.39
2018-04-24T11:48:57.153Z,85.41
2018-04-24T11:49:57.149Z,85.25
2018-04-24T11:50:57.152Z,85.64
2018-04-24T11:51:57.151Z,85.64
2018-04-24T11:52:57.146Z,85.54
2018-04-24T11:53:57.145Z,85.45
2018-04-24T11:54:57.148Z,85.35
2018-04-24T11:55:57.147Z,85.54
2018-04-24T11:56:57.143Z,85.54
2018-04-24T11:57:57.141Z,85.16
2018-04-24T11:58:57.141Z,85.64
2018-04-24T11:59:57.138Z,85.25
2018-04-24T12:00:57.137Z,85.35
2018-04-24T12:01:57.137Z,84.88
2018-04-24T12:02:57.140Z,85.16
2018-04-24T12:03:57.135Z,84.88
2018-04-24T12:04:57.135Z,84.01
2018-04-24T12:05:57.133Z,84.30
2018-04-24T12:06:57.133Z,84.20
2018-04-24T12:07:57.131Z,84.49
2018-04-24T12:08:57.132Z,85.35
2018-04-24T12:09:57.177Z,84.49
2018-04-24T12:10:57.128Z,84.39
2018-04-24T12:11:57.127Z,84.39
2018-04-24T12:12:57.129Z,84.88
2018-04-24T12:13:57.134Z,85.06
2018-04-24T12:14:57.123Z,84.58
2018-04-24T12:15:57.154Z,84.68
2018-04-24T12:16:57.122Z,84.68
2018-04-24T12:17:57.121Z,84.78
2018-04-24T12:18:57.132Z,85.16
2018-04-24T12:19:57.119Z,84.49
2018-04-24T12:20:57.119Z,83.76
2018-04-24T12:21:57.118Z,83.86
2018-04-24T12:22:57.120Z,83.58
2018-04-24T12:23:57.124Z,83.48
2018-04-24T12:24:57.115Z,83.67
2018-04-24T12:25:57.113Z,83.67
2018-04-24T12:26:57.116Z,83.19
2018-04-24T12:27:57.116Z,83.38
2018-04-24T12:28:57.111Z,83.00
2018-04-24T12:29:57.110Z,83.04
2018-04-24T12:30:57.110Z,83.04
2018-04-24T12:31:57.111Z,82.65
2018-04-24T12:32:57.109Z,82.65
2018-04-24T12:33:57.108Z,82.37
2018-04-24T12:34:57.108Z,82.37
2018-04-24T12:35:57.109Z,81.98
2018-04-24T12:36:57.107Z,82.08
2018-04-24T12:37:57.107Z,81.64
2018-04-24T12:38:57.107Z,81.07
2018-04-24T12:39:57.107Z,81.26
2018-04-24T12:40:57.116Z,81.45
2018-04-24T12:41:57.110Z,80.58
2018-04-24T12:42:57.106Z,80.30
2018-04-24T12:43:57.106Z,80.15
2018-04-24T12:44:57.109Z,80.53
2018-04-24T12:45:57.111Z,79.47
2018-04-24T12:46:57.106Z,79.19
2018-04-24T12:47:57.106Z,78.80
2018-04-24T12:48:57.106Z,78.32
2018-04-24T12:49:57.107Z,78.61
2018-04-24T12:50:57.107Z,78.23
2018-04-24T12:51:57.106Z,78.03
2018-04-24T12:52:57.111Z,79.09